North Salem, New York
Current Conditions -  °F | °C
As of 3:53 AM on Monday 20 Oct 2014 (Local Time) from KDXR Reporting Station
Clear Clear  
Wind Chill: 33°   Ceiling: Unl
Heat Index: 33°   Visibility: 10mi
Dew Point: 29°   Wind: 0mph
Humidity: 85%   Direction: NA
Pressure: 30.06"   Gusts: NA
Location:  41.33°N, 73.57°W
Report Text: KDXR 200753Z AUTO 00000KT 10SM CLR 01/M02 A3006 RMK AO2 SLP182 T00061017
Loading
Personal Weather Stations






























Interactive Weather Map
Tropical Storm Tracking
New forecast layout! Learn more

10-Day Weather Forecast

Advertisements
Track Severe Weather on mobile